메인 페이지
METAR-TAF:

METAR-TAF

공항 :

베이루트, 레바논

위도: 33-49N, 경도: 035-29E, 고도: 29m

현재 날씨관측

예보는 16분 전, 08:49시(UTC)에 발표되었습니다.
동남동4kt
온도 17°C
습도 68%
기압 1013 hPa
시정: 5000m
고도 2000ft 상공 구름 조금, 적란운.
고도 2300ft 상공 구름 보통
뇌우, 비

METAR: OLBA 090849Z 11004KT 5000 TSRA FEW020CB SCT023 17/11 Q1013

시각: 11:05 (09:05 UTC)

예보

예보는 5 시간 5분 전, 04:00시(UTC)에 발표되었습니다.
예보 대상 시간: 09일 06시부터 10일 12시까지 (UTC)
남남서15kt
시정: 8000m
고도 2500ft 상공 구름 많음
약한비
일시적
09일 06시부터 09일 12시까지 (UTC)
시정: 5000m
고도 2000ft 상공 구름 조금, 적란운.
고도 2500ft 상공 흐림
뇌우, 비
전환 중
09일 12시부터 09일 15시까지 (UTC)
남서16kt, 순간 최대 풍속 28kt
시정: 7000m
일시적
09일 12시부터 09일 24시까지 (UTC)
시정: 4000m
고도 1800ft 상공 구름 조금, 적란운.
고도 2200ft 상공 흐림
전환 중
10일 00시부터 10일 03시까지 (UTC)
남남동12kt
시정: 8000m
고도 2800ft 상공 구름 많음
약한비
전환 중
10일 06시부터 10일 09시까지 (UTC)
남서14kt
고도 3000ft 상공 구름 많음
일시적
10일 06시부터 10일 12시까지 (UTC)
이슬비

TAF: OLBA 090400Z 0906/1012 20015KT 8000 -RA BKN025 TEMPO 0906/0912 5000 TSRA FEW020CB OVC025 BECMG 0912/0915 23016G28KT 7000 RA TEMPO 0912/0924 4000 TSSHRA FEW018CB OVC022 BECMG 1000/1003 16012KT 8000 -RA BKN028 BECMG 1006/1009 22014KT BKN030 TEMPO 1006/1012 DZ

4,000개 이상의 공항 관측 자료 및 예보 (METAR 및 TAF 보고).

지도상에서 검색 가능한 기상관측소가 노란 점과 빨간 점으로 표시되어 있습니다.

기상관측소 명을 보려면 표시 위로 마우스를 이동하세요.

날씨 관측과 예보를 보려면 클릭하세요.

지도 변경 : 확대하려면 엑스 표시가 있는 녹색 버튼, 축소하려면 빼기 표시가 있는 녹색 버튼, 다음 페이지의 지도를 보려면 녹색 화살표를 클릭하세요.


METAR-TAF: